Main page
METAR-TAF:

METAR-TAF

Airports :

Southwest Minnesota Regional Airport (Marshall/Ryan Field)

Marshall, Minnesota, United States

latitude: 44-27N, longitude: 095-49W, elevation: 1178 ft

Current weather observation

The report was made 1 hour and 5 minutes ago, at 19:56 UTC
Wind 18 mph from the South/Southeast with gusts up to 24 mph
Temperature 57°F
Humidity 63%
Pressure 29.83 in. Hg
Visibility: 10 miles
Scattered clouds at a height of 2900 ft

METAR: KMML 011956Z AUTO 16016G21KT 10SM SCT029 14/07 A2983 RMK AO2 SLP106 T01390067

Time: 16:01 (21:01 UTC)


TAF: missing

Weather observations and forecasts of more than 4000 airports (METAR and TAF reports).

The available stations are represented by yellow and red dots on the map.

Hover mouse over dot to see the name of the station.

Then click to see weather observations and forecasts.

To change the map : click on the green buttons with a black cross to zoom in, on the green button with a dash to zoom out, or on the green arrows for adjacent maps.


METAR-TAF: